Time;durP1;ratioP1;P1;durP2;ratioP2;P2;SDS_P1;SDS_P2;PMS_P1;PMS_P2;Temp;Humidity;BMP_temperature;BMP_pressure;BME280_temperature;BME280_humidity;BME280_pressure;Samples;Min_cycle;Max_cycle;Signal;HPM_P1;HPM_P2
2022/08/28 00:01:45;;;;;;;10.63;5.30;;;;;;;19.84;71.99;94669.75;5113673;28;20165;-76
2022/08/28 00:04:10;;;;;;;22.80;5.93;;;;;;;19.91;72.54;94681.75;5113740;28;20763;-76
2022/08/28 00:06:36;;;;;;;14.57;5.47;;;;;;;19.89;72.85;94685.78;5114006;28;20183;-76
2022/08/28 00:09:02;;;;;;;11.05;4.80;;;;;;;19.94;72.34;94697.25;5113850;28;20215;-76
2022/08/28 00:11:28;;;;;;;12.35;5.13;;;;;;;19.94;72.71;94696.44;5113487;28;20233;-76
2022/08/28 00:13:53;;;;;;;12.52;5.18;;;;;;;19.93;73.25;94692.97;5105231;28;20269;-76
2022/08/28 00:16:19;;;;;;;13.60;5.40;;;;;;;19.88;72.93;94694.88;5109491;28;20229;-76
2022/08/28 00:18:44;;;;;;;13.35;5.32;;;;;;;19.83;73.19;94693.00;5113635;28;20598;-76
2022/08/28 00:21:10;;;;;;;11.57;5.32;;;;;;;19.61;73.31;94662.34;5113863;28;20181;-76
2022/08/28 00:23:36;;;;;;;11.85;6.38;;;;;;;19.66;73.73;94687.16;5113539;28;20287;-76
2022/08/28 00:26:02;;;;;;;9.43;5.53;;;;;;;19.65;74.20;94682.09;5112253;28;20177;-76
2022/08/28 00:28:28;;;;;;;12.30;5.78;;;;;;;19.66;74.37;94691.72;5113484;28;20256;-76
2022/08/28 00:30:57;;;;;;;16.30;6.07;;;;;;;19.65;74.04;94692.78;5113404;28;20226;-76
2022/08/28 00:33:34;;;;;;;12.52;5.82;;;;;;;19.65;74.28;94692.78;5113522;28;20172;-76
2022/08/28 00:36:01;;;;;;;17.25;6.00;;;;;;;19.62;74.47;94694.13;5113133;28;20169;-76
2022/08/28 00:38:27;;;;;;;17.65;5.78;;;;;;;19.63;74.89;94689.59;5113037;28;20176;-76
2022/08/28 00:40:58;;;;;;;18.08;5.63;;;;;;;19.58;74.63;94688.53;5112180;28;20246;-76
2022/08/28 00:43:48;;;;;;;15.65;6.15;;;;;;;19.57;74.91;94699.47;5112149;28;20229;-76
2022/08/28 00:46:22;;;;;;;10.18;6.25;;;;;;;19.55;75.15;94701.59;5112169;28;20173;-76
2022/08/28 00:48:49;;;;;;;11.45;6.15;;;;;;;19.53;75.36;94707.25;5112394;28;20176;-76
2022/08/28 00:54:01;;;;;;;13.75;5.55;;;;;;;19.41;75.99;94700.53;5113135;28;20322;-76
2022/08/28 00:56:28;;;;;;;12.85;6.07;;;;;;;19.39;76.14;94700.00;5113070;28;20251;-76
2022/08/28 00:58:56;;;;;;;17.55;6.63;;;;;;;19.19;76.04;94666.94;5112655;28;20176;-77
2022/08/28 01:01:22;;;;;;;15.55;5.57;;;;;;;19.22;75.60;94685.06;5112553;28;20173;-77
2022/08/28 01:03:47;;;;;;;15.85;5.07;;;;;;;19.29;75.75;94697.34;5112886;28;20218;-76
2022/08/28 01:06:14;;;;;;;16.38;5.53;;;;;;;19.33;76.20;94695.75;5112346;28;20173;-76
2022/08/28 01:08:44;;;;;;;16.75;5.47;;;;;;;19.32;76.16;94702.97;5112734;28;20173;-76
2022/08/28 01:11:11;;;;;;;11.52;5.15;;;;;;;19.33;75.90;94693.88;5112573;28;20221;-76
2022/08/28 01:13:38;;;;;;;12.48;5.32;;;;;;;19.27;76.60;94694.97;5095395;28;20169;-76
2022/08/28 01:16:05;;;;;;;11.00;5.05;;;;;;;19.30;76.57;94694.41;5112445;28;20267;-76
2022/08/28 01:18:32;;;;;;;14.90;5.55;;;;;;;19.32;76.54;94696.81;5112383;28;20169;-76
2022/08/28 01:21:09;;;;;;;21.70;6.75;;;;;;;19.30;76.64;94689.06;5112536;28;20173;-77
2022/08/28 01:23:54;;;;;;;14.48;4.97;;;;;;;19.25;76.65;94701.63;5112250;28;20211;-76
2022/08/28 01:26:20;;;;;;;9.93;5.38;;;;;;;19.20;76.27;94700.56;5112295;28;20317;-76
2022/08/28 01:28:46;;;;;;;8.48;5.40;;;;;;;18.99;76.67;94677.63;5112182;28;20164;-77
2022/08/28 01:31:14;;;;;;;15.25;5.53;;;;;;;19.09;77.12;94701.66;5112290;28;20248;-76
2022/08/28 01:33:42;;;;;;;12.30;5.20;;;;;;;18.98;77.55;94683.22;5110688;28;20173;-77
2022/08/28 01:36:09;;;;;;;12.68;5.18;;;;;;;19.05;77.41;94697.91;5103972;28;20209;-77
2022/08/28 01:38:36;;;;;;;12.20;4.95;;;;;;;19.04;77.70;94696.28;5112030;28;20176;-76
2022/08/28 01:41:01;;;;;;;9.25;4.68;;;;;;;19.03;77.65;94697.34;5112188;28;20205;-76
2022/08/28 01:43:27;;;;;;;10.85;5.07;;;;;;;18.91;77.24;94683.50;5112153;28;20281;-77
2022/08/28 01:45:59;;;;;;;10.80;5.28;;;;;;;19.01;76.90;94699.50;5112357;28;20173;-76
2022/08/28 01:48:25;;;;;;;12.52;5.30;;;;;;;18.97;77.40;94703.78;5112207;28;20225;-76
2022/08/28 01:50:51;;;;;;;18.70;5.00;;;;;;;18.94;77.54;94706.19;5111963;28;20168;-76
2022/08/28 01:53:22;;;;;;;11.35;5.45;;;;;;;18.94;77.92;94703.53;5112004;28;20172;-77
2022/08/28 01:55:49;;;;;;;16.70;8.30;;;;;;;18.93;77.50;94705.38;5111970;28;20172;-76
2022/08/28 01:58:15;;;;;;;18.45;5.78;;;;;;;18.91;77.79;94699.50;5112094;28;20539;-76
2022/08/28 02:00:41;;;;;;;13.10;5.55;;;;;;;18.90;77.75;94702.44;5111993;28;20180;-77
2022/08/28 02:03:07;;;;;;;17.70;5.00;;;;;;;18.80;78.00;94698.69;5111804;28;20192;-77
2022/08/28 02:05:34;;;;;;;12.10;5.18;;;;;;;18.68;78.10;94682.13;5111981;28;20173;-77
2022/08/28 02:08:01;;;;;;;15.88;5.57;;;;;;;18.83;78.27;94705.38;5112250;28;20317;-77
2022/08/28 02:10:28;;;;;;;22.05;6.43;;;;;;;18.74;78.05;94694.44;5111703;28;20597;-77
2022/08/28 02:12:55;;;;;;;10.43;5.03;;;;;;;18.80;78.09;94711.22;5111715;28;20171;-77
2022/08/28 02:15:23;;;;;;;21.33;5.65;;;;;;;18.76;78.17;94704.84;5093810;28;20188;-76
2022/08/28 02:17:49;;;;;;;15.25;5.40;;;;;;;18.68;78.67;94705.38;5111768;28;20625;-77
2022/08/28 02:20:15;;;;;;;20.73;5.88;;;;;;;18.67;78.88;94703.75;5111684;28;20200;-77
2022/08/28 02:22:40;;;;;;;15.15;6.30;;;;;;;18.67;79.05;94701.09;5111697;28;20223;-77
2022/08/28 02:25:08;;;;;;;19.42;5.97;;;;;;;18.68;79.15;94698.13;5112018;28;20559;-77
2022/08/28 02:27:34;;;;;;;16.02;5.70;;;;;;;18.67;79.04;94707.22;5111651;28;20176;-77
2022/08/28 02:29:59;;;;;;;13.23;5.50;;;;;;;18.66;78.99;94713.63;5112135;28;20245;-77
2022/08/28 02:32:25;;;;;;;10.68;5.57;;;;;;;18.65;78.73;94711.22;5111831;28;20659;-77
2022/08/28 02:34:53;;;;;;;10.35;5.40;;;;;;;18.59;78.90;94714.94;5112165;28;20217;-77
2022/08/28 02:37:20;;;;;;;13.00;5.68;;;;;;;18.56;79.28;94712.75;5111738;28;20280;-77
2022/08/28 02:39:46;;;;;;;10.82;5.05;;;;;;;18.50;79.58;94708.50;5111683;28;20209;-77
2022/08/28 02:42:11;;;;;;;10.50;5.95;;;;;;;18.46;79.76;94719.69;5111742;28;20591;-77
2022/08/28 02:44:37;;;;;;;13.05;5.75;;;;;;;18.35;80.25;94709.25;5111586;28;20180;-77
2022/08/28 02:47:03;;;;;;;15.95;5.75;;;;;;;18.37;80.16;94709.78;5111823;28;20232;-77
2022/08/28 02:49:30;;;;;;;12.07;5.82;;;;;;;18.45;80.13;94712.75;5113022;28;20169;-77
2022/08/28 02:51:56;;;;;;;16.15;5.60;;;;;;;18.44;80.19;94716.47;5104272;28;20177;-78
2022/08/28 02:54:22;;;;;;;10.50;5.13;;;;;;;18.48;79.69;94720.22;5111062;28;20169;-78
2022/08/28 02:56:48;;;;;;;13.35;6.72;;;;;;;18.34;79.89;94702.31;5115684;28;20177;-78
2022/08/28 02:59:14;;;;;;;14.73;5.75;;;;;;;18.45;79.80;94717.25;5115516;28;20224;-78
2022/08/28 03:01:39;;;;;;;17.90;5.70;;;;;;;18.42;80.36;94723.16;5116134;28;20693;-78
2022/08/28 03:04:05;;;;;;;13.52;6.15;;;;;;;18.41;80.12;94722.34;5115901;28;20672;-77
2022/08/28 03:06:31;;;;;;;17.85;5.88;;;;;;;18.22;80.42;94681.25;5115813;28;20219;-78
2022/08/28 03:08:57;;;;;;;16.17;5.40;;;;;;;18.35;80.00;94720.69;5115887;28;20187;-78
2022/08/28 03:11:22;;;;;;;12.30;5.38;;;;;;;18.31;79.99;94722.31;5115392;28;20300;-77
2022/08/28 03:13:48;;;;;;;15.38;5.78;;;;;;;18.25;80.36;94719.88;5115621;28;20222;-77
2022/08/28 03:16:14;;;;;;;9.98;5.25;;;;;;;18.28;80.09;94722.00;5115966;28;20176;-77
2022/08/28 03:18:40;;;;;;;17.92;6.88;;;;;;;18.21;80.60;94708.94;5114237;28;20188;-77
2022/08/28 03:21:06;;;;;;;10.25;5.82;;;;;;;18.32;80.34;94725.78;5108016;28;20177;-78
2022/08/28 03:23:31;;;;;;;10.55;4.80;;;;;;;18.31;80.15;94724.16;5115417;28;20200;-77
2022/08/28 03:26:11;;;;;;;10.90;5.85;;;;;;;18.24;80.22;94718.28;5116005;28;20897;-78
2022/08/28 03:28:46;;;;;;;10.40;5.10;;;;;;;18.24;80.19;94716.44;5099980;28;20169;-78
2022/08/28 03:31:16;;;;;;;11.70;5.70;;;;;;;18.25;80.40;94725.22;5115370;28;20259;-77
2022/08/28 03:33:42;;;;;;;12.77;5.72;;;;;;;18.23;80.33;94714.81;5115127;28;20550;-76
2022/08/28 03:36:10;;;;;;;9.80;5.22;;;;;;;18.24;80.11;94723.63;5114708;28;20176;-77
2022/08/28 03:38:35;;;;;;;12.25;5.00;;;;;;;18.02;80.35;94697.16;5114962;28;20526;-77
2022/08/28 03:41:01;;;;;;;13.15;5.00;;;;;;;18.17;80.25;94729.16;5115227;28;20177;-78
2022/08/28 03:43:27;;;;;;;9.77;5.72;;;;;;;18.08;80.61;94726.19;5115098;28;20196;-77
2022/08/28 03:46:02;;;;;;;12.35;5.18;;;;;;;18.07;80.74;94724.59;5115131;28;20184;-77
2022/08/28 03:48:30;;;;;;;13.95;6.47;;;;;;;18.01;80.90;94736.31;5114801;28;20171;-77
2022/08/28 03:50:57;;;;;;;15.82;5.70;;;;;;;18.03;80.50;94739.50;5097252;28;20238;-77
2022/08/28 03:53:24;;;;;;;17.70;5.72;;;;;;;18.02;81.26;94740.56;5114602;28;20176;-78
2022/08/28 03:55:50;;;;;;;14.20;6.35;;;;;;;17.94;81.14;94740.25;5096698;28;20172;-77
2022/08/28 03:58:16;;;;;;;14.05;5.70;;;;;;;17.84;81.19;94724.22;5114941;28;20176;-77
2022/08/28 04:00:43;;;;;;;12.10;5.32;;;;;;;17.81;80.77;94714.91;5113118;28;20729;-77
2022/08/28 04:03:11;;;;;;;9.85;4.90;;;;;;;17.88;80.87;94733.31;5114691;28;20189;-77
2022/08/28 04:05:38;;;;;;;17.38;5.68;;;;;;;18.01;80.88;94759.47;5114714;28;20173;-78
2022/08/28 04:08:04;;;;;;;13.55;6.28;;;;;;;18.05;80.90;94763.22;5114548;28;20233;-77
2022/08/28 04:10:31;;;;;;;15.98;6.47;;;;;;;17.99;80.65;94748.25;5114071;28;20614;-78
2022/08/28 04:12:57;;;;;;;15.70;5.90;;;;;;;18.10;80.94;94765.91;5114567;28;20176;-77
2022/08/28 04:15:23;;;;;;;12.27;6.40;;;;;;;17.98;80.85;94755.47;5114369;28;20648;-77
2022/08/28 04:17:48;;;;;;;14.52;5.47;;;;;;;18.10;80.43;94768.56;5114298;28;20175;-77
2022/08/28 04:20:14;;;;;;;12.77;5.32;;;;;;;17.92;79.91;94723.72;5113925;28;20173;-77
2022/08/28 04:22:39;;;;;;;7.78;5.10;;;;;;;18.44;79.59;94772.44;5114538;28;20196;-77
2022/08/28 04:25:06;;;;;;;16.63;5.20;;;;;;;18.70;78.59;94773.34;5108501;28;20225;-78
2022/08/28 04:27:32;;;;;;;17.20;5.60;;;;;;;19.01;77.47;94771.56;5113740;28;20176;-78
2022/08/28 04:29:58;;;;;;;11.90;4.90;;;;;;;19.35;76.63;94785.19;5113476;28;20180;-78
2022/08/28 04:32:23;;;;;;;11.70;5.20;;;;;;;19.69;75.51;94785.47;5113536;28;20173;-76
2022/08/28 04:34:49;;;;;;;17.15;5.15;;;;;;;19.67;74.52;94744.88;5094583;28;20723;-76
2022/08/28 04:37:16;;;;;;;17.88;6.82;;;;;;;19.98;73.72;94780.31;5112906;28;20173;-76
2022/08/28 04:39:41;;;;;;;24.23;6.88;;;;;;;20.37;72.84;94791.22;5112792;28;20636;-76
2022/08/28 04:42:07;;;;;;;15.35;6.07;;;;;;;20.77;70.35;94792.91;5112556;28;20177;-76
2022/08/28 04:44:32;;;;;;;15.73;5.68;;;;;;;21.28;68.97;94787.25;5112425;28;20584;-76
2022/08/28 04:46:58;;;;;;;11.48;4.90;;;;;;;21.94;66.71;94795.53;5112561;28;20184;-76
2022/08/28 04:49:24;;;;;;;17.25;5.97;;;;;;;22.67;64.53;94806.00;5110919;28;20195;-76
2022/08/28 04:51:50;;;;;;;35.80;6.18;;;;;;;23.22;61.59;94779.53;5108331;28;20717;-76
2022/08/28 04:54:15;;;;;;;18.92;6.45;;;;;;;23.91;59.68;94789.44;5112685;28;20201;-76
2022/08/28 04:56:41;;;;;;;18.02;6.07;;;;;;;24.67;57.71;94806.88;5112646;28;21659;-76
2022/08/28 04:59:06;;;;;;;15.18;5.15;;;;;;;25.04;55.58;94780.81;5112486;28;20582;-76
2022/08/28 05:01:32;;;;;;;17.30;6.03;;;;;;;25.61;54.03;94778.44;5112324;28;20263;-76
2022/08/28 05:04:02;;;;;;;20.65;6.82;;;;;;;26.40;52.82;94805.56;5112488;28;20279;-76
2022/08/28 05:06:30;;;;;;;16.20;5.85;;;;;;;27.03;51.35;94813.28;5109824;28;20655;-77
2022/08/28 05:08:57;;;;;;;28.15;6.28;;;;;;;27.60;47.81;94821.28;5112024;28;20184;-76
2022/08/28 05:11:24;;;;;;;15.75;5.53;;;;;;;28.15;46.91;94814.06;5111926;28;20227;-76
2022/08/28 05:13:51;;;;;;;12.57;5.28;;;;;;;28.60;45.22;94816.31;5111474;28;20169;-76
2022/08/28 05:16:18;;;;;;;13.48;5.38;;;;;;;29.17;44.30;94821.31;5108702;28;20624;-76
2022/08/28 05:18:44;;;;;;;16.50;6.35;;;;;;;29.84;42.59;94821.13;5111961;28;20198;-76
2022/08/28 05:21:11;;;;;;;19.55;5.90;;;;;;;30.46;41.28;94822.13;5106074;28;20180;-76
2022/08/28 05:23:37;;;;;;;12.10;4.75;;;;;;;30.91;40.38;94822.88;5110580;28;20205;-76
2022/08/28 05:26:02;;;;;;;9.75;4.20;;;;;;;31.35;40.01;94825.81;5111670;28;20673;-76
2022/08/28 05:28:28;;;;;;;11.18;4.63;;;;;;;31.81;38.32;94816.31;5111768;28;20596;-77
2022/08/28 05:30:53;;;;;;;16.08;4.72;;;;;;;32.32;37.38;94820.06;5109047;28;20176;-77
2022/08/28 05:33:19;;;;;;;12.45;4.65;;;;;;;32.85;36.57;94831.56;5103143;28;20535;-77
2022/08/28 05:35:45;;;;;;;8.45;4.18;;;;;;;33.36;35.56;94824.22;5111717;28;20592;-77
2022/08/28 05:38:12;;;;;;;13.65;4.32;;;;;;;33.78;33.86;94824.38;5111650;28;20621;-77
2022/08/28 05:40:46;;;;;;;12.02;4.53;;;;;;;34.18;33.69;94831.38;5111532;28;20184;-77
2022/08/28 05:43:14;;;;;;;16.65;6.45;;;;;;;34.62;33.24;94837.31;5110239;28;20229;-76
2022/08/28 05:45:40;;;;;;;10.70;5.07;;;;;;;35.05;31.80;94828.69;5109937;28;20310;-78
2022/08/28 05:48:06;;;;;;;8.73;4.75;;;;;;;35.52;31.10;94828.25;5111725;28;20661;-79
2022/08/28 05:50:31;;;;;;;9.25;4.20;;;;;;;35.91;29.96;94841.69;5111987;28;20937;-78
2022/08/28 05:52:57;;;;;;;9.05;4.43;;;;;;;36.24;30.61;94836.22;5112217;28;20246;-80
2022/08/28 05:55:22;;;;;;;8.77;4.57;;;;;;;36.59;30.31;94841.28;5112276;28;20181;-79
2022/08/28 05:57:47;;;;;;;15.85;4.97;;;;;;;36.71;29.67;94836.72;5108297;28;20245;-80
2022/08/28 06:00:13;;;;;;;7.30;3.92;;;;;;;36.93;28.70;94835.78;5112227;28;20180;-78
2022/08/28 06:02:40;;;;;;;11.45;4.32;;;;;;;37.04;28.73;94809.94;5111463;28;20196;-79
2022/08/28 06:05:07;;;;;;;7.40;4.15;;;;;;;37.26;27.92;94823.88;5106213;28;20173;-79
2022/08/28 06:07:33;;;;;;;16.25;7.88;;;;;;;37.35;28.34;94827.88;5110847;28;20177;-78
2022/08/28 06:09:59;;;;;;;14.85;7.60;;;;;;;37.08;28.15;94828.44;5110516;28;20189;-78
2022/08/28 06:12:24;;;;;;;15.07;5.50;;;;;;;37.34;28.06;94834.53;5110525;28;20224;-80
2022/08/28 06:14:50;;;;;;;14.95;8.77;;;;;;;36.57;29.10;94831.88;5110622;28;20208;-79
2022/08/28 06:17:15;;;;;;;17.23;5.82;;;;;;;36.36;28.98;94831.66;5110647;28;20647;-79
2022/08/28 06:19:41;;;;;;;10.38;5.63;;;;;;;36.35;29.31;94825.38;5105393;28;20177;-79
2022/08/28 06:22:08;;;;;;;12.95;4.82;;;;;;;36.31;29.14;94835.53;5111290;28;20201;-78
2022/08/28 06:24:34;;;;;;;10.05;4.65;;;;;;;36.14;29.75;94830.63;5112791;28;20203;-79
2022/08/28 06:26:59;;;;;;;15.70;4.28;;;;;;;35.84;30.11;94806.75;5115454;28;20173;-78
2022/08/28 06:29:28;;;;;;;11.75;5.35;;;;;;;35.88;29.60;94824.03;5111872;28;20259;-79
2022/08/28 06:32:03;;;;;;;13.07;4.28;;;;;;;35.56;30.15;94826.31;5116174;28;20165;-79
2022/08/28 06:34:28;;;;;;;29.10;15.30;;;;;;;35.02;31.00;94831.38;5113436;28;20592;-78
2022/08/28 06:36:54;;;;;;;15.93;5.40;;;;;;;34.74;31.85;94835.22;5115900;28;20211;-78
2022/08/28 06:39:21;;;;;;;14.35;4.85;;;;;;;34.45;32.17;94835.84;5115843;28;20172;-78
2022/08/28 06:41:46;;;;;;;15.05;5.32;;;;;;;33.91;33.58;94823.06;5115398;28;20169;-78
2022/08/28 06:44:18;;;;;;;11.65;4.53;;;;;;;33.71;34.50;94813.25;5108444;28;20221;-78
2022/08/28 06:46:48;;;;;;;24.42;5.38;;;;;;;33.81;34.00;94836.53;5113713;28;20208;-78
2022/08/28 06:49:14;;;;;;;12.98;5.20;;;;;;;33.32;33.86;94831.53;5114265;28;20685;-78
2022/08/28 06:51:40;;;;;;;10.95;5.20;;;;;;;31.81;36.84;94806.22;5114268;28;20272;-78
2022/08/28 06:54:06;;;;;;;12.27;5.78;;;;;;;31.83;37.11;94822.19;5113904;28;20184;-78
2022/08/28 06:56:32;;;;;;;10.13;4.82;;;;;;;31.70;37.10;94807.03;5114427;28;20173;-78
2022/08/28 06:58:58;;;;;;;7.45;4.93;;;;;;;31.75;38.67;94818.47;5113641;28;20184;-78
2022/08/28 07:01:31;;;;;;;15.48;5.38;;;;;;;31.88;38.18;94837.50;5113515;28;20559;-78
2022/08/28 07:04:00;;;;;;;10.63;5.00;;;;;;;31.85;38.10;94826.16;5111629;28;20226;-78
2022/08/28 07:06:26;;;;;;;19.95;5.55;;;;;;;31.72;38.90;94794.69;5111737;28;20185;-78
2022/08/28 07:08:53;;;;;;;13.32;5.07;;;;;;;31.91;37.55;94831.38;5114050;28;20197;-78
2022/08/28 07:11:24;;;;;;;16.60;6.35;;;;;;;31.64;37.02;94822.84;5114097;28;20220;-78
2022/08/28 07:13:54;;;;;;;15.35;5.18;;;;;;;31.19;38.18;94819.50;5114401;28;20177;-78
2022/08/28 07:16:21;;;;;;;9.73;5.32;;;;;;;31.09;37.96;94826.19;5114300;28;20640;-78
2022/08/28 07:18:46;;;;;;;13.20;4.97;;;;;;;30.91;38.47;94822.09;5113528;28;20173;-78
2022/08/28 07:21:12;;;;;;;18.67;5.45;;;;;;;30.58;40.25;94775.97;5114006;28;20291;-78
2022/08/28 07:23:40;;;;;;;15.93;5.15;;;;;;;30.95;39.69;94812.13;5108276;28;20205;-78
2022/08/28 07:26:11;;;;;;;16.00;6.22;;;;;;;31.09;39.50;94812.59;5109636;28;20180;-77
2022/08/28 07:28:37;;;;;;;9.98;4.75;;;;;;;31.19;40.29;94816.78;5111144;28;21022;-76
2022/08/28 07:31:12;;;;;;;15.98;4.90;;;;;;;31.34;40.63;94824.22;5107841;28;20239;-76
2022/08/28 07:33:38;;;;;;;15.02;4.80;;;;;;;31.50;38.82;94822.38;5109901;28;20708;-76
2022/08/28 07:36:10;;;;;;;14.73;5.88;;;;;;;31.64;39.01;94828.28;5109477;28;20177;-76
2022/08/28 07:38:35;;;;;;;20.77;5.70;;;;;;;31.34;38.00;94810.63;5111240;28;20189;-77
2022/08/28 07:41:02;;;;;;;10.15;5.72;;;;;;;31.16;38.62;94810.09;5108440;28;20258;-76
2022/08/28 07:46:11;;;;;;;18.70;5.43;;;;;;;31.60;38.92;94813.72;5105906;28;20219;-77
2022/08/28 07:48:39;;;;;;;12.68;4.90;;;;;;;31.81;37.50;94819.84;5112787;28;20165;-77
2022/08/28 07:51:06;;;;;;;11.95;4.57;;;;;;;31.70;38.72;94785.25;5102857;28;20840;-77
2022/08/28 07:53:32;;;;;;;11.50;5.50;;;;;;;32.08;37.65;94812.78;5100582;28;20251;-77
2022/08/28 07:55:58;;;;;;;20.00;5.13;;;;;;;32.20;35.95;94814.69;5101534;28;20280;-77
2022/08/28 07:58:24;;;;;;;17.80;5.28;;;;;;;31.77;36.93;94794.41;5103910;27;20261;-78
2022/08/28 08:00:51;;;;;;;8.65;4.20;;;;;;;31.77;37.19;94810.75;5100899;28;20640;-76
2022/08/28 08:03:17;;;;;;;14.10;5.13;;;;;;;31.53;37.12;94816.25;5101213;28;20197;-76
2022/08/28 08:05:54;;;;;;;10.05;4.93;;;;;;;31.43;38.67;94808.56;5104698;28;20551;-76
2022/08/28 08:08:20;;;;;;;11.07;4.20;;;;;;;31.39;40.23;94804.97;5099927;28;20629;-76
2022/08/28 08:10:56;;;;;;;15.07;4.95;;;;;;;31.71;38.64;94811.34;5099665;28;20754;-76
2022/08/28 08:13:21;;;;;;;21.23;4.55;;;;;;;31.71;36.12;94790.38;5097614;28;20205;-76
2022/08/28 08:15:46;;;;;;;17.02;4.40;;;;;;;31.82;35.80;94805.09;5094445;28;20224;-76
2022/08/28 08:18:13;;;;;;;15.88;5.10;;;;;;;31.74;37.01;94811.44;5097372;28;20177;-76
2022/08/28 08:20:38;;;;;;;9.48;4.70;;;;;;;31.51;37.08;94810.34;5099500;28;20621;-76
2022/08/28 08:23:04;;;;;;;13.40;5.00;;;;;;;31.41;37.10;94811.63;5098732;28;20798;-76
2022/08/28 08:25:29;;;;;;;11.05;4.82;;;;;;;31.57;38.08;94808.97;5099444;28;20170;-77
2022/08/28 08:27:54;;;;;;;10.65;4.57;;;;;;;31.79;36.81;94808.50;5098474;28;20196;-76
2022/08/28 08:30:20;;;;;;;15.10;4.72;;;;;;;31.70;37.90;94794.22;5098787;28;20190;-76
2022/08/28 08:32:45;;;;;;;11.80;5.10;;;;;;;31.88;36.98;94802.09;5096905;28;20165;-76
2022/08/28 08:35:11;;;;;;;10.85;4.97;;;;;;;32.12;37.14;94794.59;5101552;28;20174;-76
2022/08/28 08:37:37;;;;;;;11.27;4.75;;;;;;;32.35;37.17;94792.09;5099209;28;20166;-76
2022/08/28 08:40:03;;;;;;;13.85;4.72;;;;;;;32.33;35.59;94799.84;5103072;28;20174;-76
2022/08/28 08:42:32;;;;;;;11.82;4.93;;;;;;;32.34;36.70;94787.81;5097359;28;20181;-76
2022/08/28 08:44:59;;;;;;;13.95;5.25;;;;;;;32.08;36.45;94793.72;5082205;28;20621;-76
2022/08/28 08:47:34;;;;;;;16.75;4.95;;;;;;;32.30;37.74;94794.31;5099053;28;20680;-76
2022/08/28 08:50:04;;;;;;;16.90;5.00;;;;;;;32.23;36.84;94782.09;5103375;28;20335;-76
2022/08/28 08:53:08;;;;;;;7.15;5.30;;;;;;;32.14;35.85;94791.53;5101793;28;20178;-76
2022/08/28 08:55:46;;;;;;;8.55;4.05;;;;;;;32.02;38.47;94789.66;5070829;28;21588;-76
2022/08/28 08:58:37;;;;;;;10.48;5.10;;;;;;;31.92;37.66;94794.81;5103348;28;20736;-76
2022/08/28 09:01:19;;;;;;;9.57;4.85;;;;;;;31.72;36.64;94797.41;5092667;28;20193;-76
2022/08/28 09:03:50;;;;;;;10.73;5.10;;;;;;;31.36;37.64;94794.75;5101936;28;20200;-76
2022/08/28 09:06:32;;;;;;;17.77;5.35;;;;;;;31.28;38.74;94792.97;5105435;28;20279;-76
2022/08/28 09:09:01;;;;;;;12.68;4.55;;;;;;;31.28;39.95;94790.22;5081884;28;20983;-76
2022/08/28 09:11:45;;;;;;;11.68;4.93;;;;;;;31.25;38.11;94793.63;5104720;28;20240;-76
2022/08/28 09:14:23;;;;;;;10.40;4.90;;;;;;;31.32;40.07;94793.84;5087898;28;20197;-76
2022/08/28 09:16:50;;;;;;;18.95;5.00;;;;;;;31.38;38.98;94782.38;5086542;28;20636;-76
2022/08/28 09:19:19;;;;;;;9.82;4.53;;;;;;;31.47;38.39;94772.16;5088359;28;20185;-76
2022/08/28 09:21:45;;;;;;;12.40;5.18;;;;;;;31.65;38.33;94789.03;5084080;28;20645;-76
2022/08/28 09:24:21;;;;;;;15.32;4.82;;;;;;;31.73;37.19;94785.38;5084225;28;20216;-76
2022/08/28 09:27:08;;;;;;;8.23;5.10;;;;;;;31.83;37.59;94784.06;5083271;28;20173;-76
2022/08/28 09:29:45;;;;;;;11.98;4.88;;;;;;;31.94;39.47;94787.06;5088006;28;20189;-76
2022/08/28 09:32:24;;;;;;;13.77;5.00;;;;;;;31.89;38.57;94781.91;5086684;28;20185;-77
2022/08/28 09:35:05;;;;;;;14.88;5.32;;;;;;;31.54;38.79;94773.50;5086346;28;20180;-77
2022/08/28 09:37:32;;;;;;;15.85;4.70;;;;;;;31.57;38.23;94776.31;5088683;28;20260;-77
2022/08/28 09:40:21;;;;;;;14.02;4.63;;;;;;;31.44;37.92;94772.03;5085606;28;20185;-76
2022/08/28 09:45:57;;;;;;;13.60;5.72;;;;;;;30.81;41.66;94763.50;5084664;28;20180;-77
2022/08/28 09:48:44;;;;;;;11.27;4.75;;;;;;;30.86;41.46;94759.78;5086959;28;20189;-76
2022/08/28 09:51:27;;;;;;;13.13;4.20;;;;;;;30.94;40.62;94740.63;5083282;28;20205;-78
2022/08/28 09:53:55;;;;;;;11.98;5.10;;;;;;;31.30;37.90;94758.03;5084882;28;20182;-76
2022/08/28 09:56:34;;;;;;;13.65;4.95;;;;;;;31.46;39.00;94751.53;5085413;28;20185;-78
2022/08/28 09:59:06;;;;;;;9.73;4.60;;;;;;;31.57;38.17;94754.53;5090153;28;20189;-77
2022/08/28 10:01:40;;;;;;;15.10;4.97;;;;;;;31.68;38.21;94761.09;5087749;28;20174;-78
2022/08/28 10:04:34;;;;;;;10.55;4.88;;;;;;;31.45;37.13;94733.59;5085129;28;20213;-77
2022/08/28 10:07:17;;;;;;;17.90;4.72;;;;;;;31.22;36.07;94729.03;5087422;28;20189;-76
2022/08/28 10:09:58;;;;;;;8.20;4.80;;;;;;;31.33;39.72;94749.97;5082454;28;20181;-76
2022/08/28 10:12:41;;;;;;;9.70;4.32;;;;;;;31.44;40.44;94742.91;5093672;28;20228;-77
2022/08/28 10:15:32;;;;;;;14.40;4.63;;;;;;;31.44;38.01;94739.38;5099635;28;20189;-78
2022/08/28 10:18:19;;;;;;;13.90;5.15;;;;;;;31.47;38.28;94736.78;5099064;28;20254;-78
2022/08/28 10:20:49;;;;;;;9.63;5.05;;;;;;;31.48;37.89;94740.28;5102038;28;20174;-76
2022/08/28 10:23:33;;;;;;;15.15;5.13;;;;;;;31.20;39.38;94687.78;5096136;28;20674;-79
2022/08/28 10:26:36;;;;;;;15.80;5.30;;;;;;;31.58;37.50;94739.78;5084149;28;20181;-78
2022/08/28 10:29:41;;;;;;;8.65;4.90;;;;;;;31.39;35.95;94710.50;5102931;28;20200;-78
2022/08/28 10:32:22;;;;;;;11.40;4.65;;;;;;;31.46;36.31;94742.56;5098180;28;20177;-78
2022/08/28 10:35:12;;;;;;;12.80;4.65;;;;;;;31.32;35.19;94729.31;5096618;28;20176;-77
2022/08/28 10:37:56;;;;;;;11.63;5.10;;;;;;;31.16;36.94;94727.66;5099339;28;20268;-76
2022/08/28 10:40:29;;;;;;;12.00;4.93;;;;;;;31.16;36.98;94730.38;5098928;28;20217;-78
2022/08/28 10:42:59;;;;;;;12.48;4.68;;;;;;;31.23;38.23;94730.59;5115785;28;20196;-76
2022/08/28 10:45:29;;;;;;;12.98;4.95;;;;;;;31.22;36.24;94718.16;5118499;28;20389;-78
2022/08/28 10:47:59;;;;;;;8.32;5.07;;;;;;;31.29;37.46;94721.06;5115546;28;20245;-77
2022/08/28 10:50:47;;;;;;;13.75;4.72;;;;;;;31.39;35.39;94726.03;5119203;28;20181;-77
2022/08/28 10:53:18;;;;;;;9.60;4.63;;;;;;;31.41;36.63;94721.00;5112152;28;20192;-77
2022/08/28 10:55:58;;;;;;;11.48;4.40;;;;;;;31.47;36.46;94725.09;5118255;28;20184;-76
2022/08/28 10:58:26;;;;;;;9.63;4.88;;;;;;;31.56;36.62;94728.47;5121154;28;20728;-77
2022/08/28 11:01:05;;;;;;;8.68;4.35;;;;;;;31.65;36.91;94720.16;5119467;28;20176;-78
2022/08/28 11:03:40;;;;;;;13.38;5.03;;;;;;;31.76;37.98;94724.75;5115784;28;20208;-77
2022/08/28 11:06:13;;;;;;;12.15;4.88;;;;;;;31.85;35.88;94719.94;5115829;28;20679;-76
2022/08/28 11:08:39;;;;;;;8.07;4.35;;;;;;;31.71;33.76;94708.66;5120368;28;20679;-77
2022/08/28 11:11:11;;;;;;;15.55;5.28;;;;;;;31.66;35.01;94714.34;5127346;27;20260;-77
2022/08/28 11:13:58;;;;;;;12.15;4.70;;;;;;;31.71;35.66;94714.13;5126997;27;20223;-78
2022/08/28 11:16:37;;;;;;;10.15;4.22;;;;;;;31.69;35.71;94696.53;5124359;27;20640;-79
2022/08/28 11:19:32;;;;;;;7.82;4.80;;;;;;;31.74;33.69;94712.63;5125361;27;20219;-79
2022/08/28 11:22:09;;;;;;;8.20;4.45;;;;;;;31.59;34.98;94711.41;5109994;27;20928;-77
2022/08/28 11:24:37;;;;;;;10.90;4.45;;;;;;;31.67;33.19;94707.78;5115368;27;20196;-76
2022/08/28 11:27:17;;;;;;;11.80;4.75;;;;;;;31.58;33.27;94711.75;5120488;27;20183;-77
2022/08/28 11:30:05;;;;;;;12.35;4.85;;;;;;;31.46;36.24;94707.97;5120008;27;20165;-76
2022/08/28 11:32:30;;;;;;;17.98;5.65;;;;;;;31.55;35.26;94710.53;5133624;27;20557;-76
2022/08/28 11:35:04;;;;;;;9.65;5.00;;;;;;;31.66;34.69;94698.00;5133949;27;20183;-76
2022/08/28 11:37:42;;;;;;;17.75;5.00;;;;;;;31.74;35.22;94697.06;5124617;27;20176;-75
2022/08/28 11:40:29;;;;;;;11.73;4.78;;;;;;;31.83;34.17;94691.47;5116393;27;20180;-76
2022/08/28 11:43:33;;;;;;;11.10;4.60;;;;;;;31.62;34.17;94699.06;5124658;27;20376;-77
2022/08/28 11:45:59;;;;;;;15.07;5.10;;;;;;;31.53;35.42;94696.47;5047050;28;20233;-75
2022/08/28 11:48:27;;;;;;;12.05;4.90;;;;;;;31.50;34.42;94689.00;5108288;27;20227;-76